Time;durP1;ratioP1;P1;durP2;ratioP2;P2;SDS_P1;SDS_P2;PMS_P1;PMS_P2;Temp;Humidity;BMP_temperature;BMP_pressure;BME280_temperature;BME280_humidity;BME280_pressure;Samples;Min_cycle;Max_cycle;Signal;HPM_P1;HPM_P2
2023/10/12 00:02:27;;;;;;;8.93;1.73;;;;;;;13.36;100.00;101824.06;4959757;28;20538;-71
2023/10/12 00:04:59;;;;;;;7.23;1.60;;;;;;;14.09;100.00;101913.69;4960619;28;20906;-71
2023/10/12 00:07:33;;;;;;;6.63;1.50;;;;;;;13.44;100.00;101844.69;4961832;28;20481;-71
2023/10/12 00:12:35;;;;;;;7.50;2.27;;;;;;;13.78;100.00;101898.69;4960519;28;20513;-72
2023/10/12 00:15:05;;;;;;;6.43;1.53;;;;;;;13.27;100.00;101793.72;4975048;28;20434;-71
2023/10/12 00:17:33;;;;;;;6.37;1.80;;;;;;;13.87;100.00;101874.28;4962036;28;20446;-72
2023/10/12 00:19:59;;;;;;;7.87;2.10;;;;;;;13.16;100.00;101799.59;4959959;28;20560;-71
2023/10/12 00:22:24;;;;;;;6.73;1.60;;;;;;;13.62;100.00;101866.59;4957472;28;20540;-72
2023/10/12 00:24:52;;;;;;;9.60;1.67;;;;;;;13.72;100.00;101861.72;4961341;28;20889;-72
2023/10/12 00:27:18;;;;;;;5.60;1.60;;;;;;;13.38;100.00;101786.16;4960467;28;20210;-72
2023/10/12 00:29:45;;;;;;;5.70;1.40;;;;;;;13.15;100.00;101768.31;4957880;28;20914;-72
2023/10/12 00:32:13;;;;;;;13.57;2.20;;;;;;;13.70;100.00;101819.81;4959844;28;20446;-71
2023/10/12 00:34:48;;;;;;;7.67;1.60;;;;;;;13.23;100.00;101759.28;4966851;28;20451;-72
2023/10/12 00:37:17;;;;;;;8.90;2.20;;;;;;;14.02;100.00;101854.28;4964118;28;21014;-71
2023/10/12 00:39:56;;;;;;;8.50;3.20;;;;;;;13.72;100.00;101794.31;4962109;28;20582;-72
2023/10/12 00:42:24;;;;;;;7.60;1.90;;;;;;;14.03;100.00;101828.16;4961793;28;20438;-71
2023/10/12 00:44:53;;;;;;;7.70;1.90;;;;;;;13.83;100.00;101828.00;4967794;28;20441;-72
2023/10/12 00:47:28;;;;;;;8.87;2.37;;;;;;;13.77;100.00;101831.50;4964247;28;20478;-72
2023/10/12 00:49:55;;;;;;;9.20;2.17;;;;;;;13.60;100.00;101766.25;4964471;28;21139;-72
2023/10/12 00:52:26;;;;;;;10.47;2.43;;;;;;;13.83;100.00;101827.16;4963994;28;20442;-72
2023/10/12 00:54:57;;;;;;;6.97;1.67;;;;;;;13.74;100.00;101821.06;4967310;28;20437;-72
2023/10/12 00:57:23;;;;;;;7.03;1.40;;;;;;;13.77;100.00;101818.84;4968885;28;20448;-72
2023/10/12 00:59:51;;;;;;;6.70;1.90;;;;;;;13.63;100.00;101800.06;4966920;28;20544;-72
2023/10/12 01:02:21;;;;;;;11.63;2.07;;;;;;;13.71;100.00;101799.91;4965186;28;20472;-73
2023/10/12 01:04:53;;;;;;;13.37;2.57;;;;;;;13.90;100.00;101830.75;4964686;28;20438;-72
2023/10/12 01:07:20;;;;;;;5.80;1.50;;;;;;;13.09;100.00;101717.91;4964952;28;20481;-73
2023/10/12 01:09:49;;;;;;;6.40;1.67;;;;;;;13.79;100.00;101840.19;4968361;28;20457;-72
2023/10/12 01:12:14;;;;;;;6.63;1.70;;;;;;;13.89;100.00;101840.72;4966978;28;20446;-72
2023/10/12 01:14:48;;;;;;;7.80;1.70;;;;;;;13.31;100.00;101729.53;4966625;28;20449;-72
2023/10/12 01:17:17;;;;;;;9.77;2.63;;;;;;;13.67;100.00;101795.94;4962431;28;20182;-72
2023/10/12 01:19:46;;;;;;;7.73;1.80;;;;;;;13.68;100.00;101816.47;4966707;28;20822;-72
2023/10/12 01:22:15;;;;;;;4.93;1.60;;;;;;;12.79;100.00;101674.16;4962513;28;20470;-72
2023/10/12 01:24:59;;;;;;;4.40;1.37;;;;;;;13.83;100.00;101822.63;4965803;28;20932;-72
2023/10/12 01:27:26;;;;;;;7.10;1.50;;;;;;;13.65;100.00;101817.69;4962347;28;20481;-72
2023/10/12 01:29:53;;;;;;;11.27;2.00;;;;;;;13.79;100.00;101822.16;4959742;28;20457;-72
2023/10/12 01:35:02;;;;;;;5.30;1.47;;;;;;;13.24;100.00;101728.59;4963531;28;20454;-72
2023/10/12 01:37:28;;;;;;;7.90;1.63;;;;;;;13.64;100.00;101785.53;4967727;28;20441;-72
2023/10/12 01:40:18;;;;;;;5.93;1.13;;;;;;;13.62;100.00;101810.00;4965409;28;20453;-72
2023/10/12 01:47:56;;;;;;;5.40;1.40;;;;;;;12.94;100.00;101652.53;4961769;28;20897;-72
2023/10/12 01:50:25;;;;;;;5.10;1.33;;;;;;;12.97;100.00;101642.19;4965207;28;20818;-72
2023/10/12 01:52:58;;;;;;;8.60;1.90;;;;;;;12.86;100.00;101653.50;4962374;28;20808;-72
2023/10/12 01:55:30;;;;;;;6.03;1.30;;;;;;;12.64;100.00;101640.06;4966116;28;20856;-72
2023/10/12 01:57:59;;;;;;;7.03;1.50;;;;;;;13.34;100.00;101765.00;4963932;28;20504;-72
2023/10/12 02:00:27;;;;;;;5.93;1.20;;;;;;;12.76;100.00;101653.84;4962569;28;20554;-72
2023/10/12 02:03:12;;;;;;;6.13;1.63;;;;;;;13.05;100.00;101662.78;4965175;28;20461;-72
2023/10/12 02:05:46;;;;;;;4.20;1.43;;;;;;;13.40;100.00;101759.88;4962299;28;21058;-72
2023/10/12 02:08:16;;;;;;;5.67;1.30;;;;;;;13.25;100.00;101760.78;4964059;28;20897;-72
2023/10/12 02:10:43;;;;;;;5.83;1.20;;;;;;;12.71;100.00;101664.34;4962632;28;20501;-72
2023/10/12 02:13:10;;;;;;;8.13;1.93;;;;;;;12.63;100.00;101651.00;4958332;28;20457;-72
2023/10/12 02:15:37;;;;;;;5.30;1.27;;;;;;;13.45;100.00;101754.69;4964610;28;20438;-72
2023/10/12 02:18:10;;;;;;;7.43;1.40;;;;;;;12.82;100.00;101682.66;4964423;28;20457;-72
2023/10/12 02:20:42;;;;;;;7.53;2.00;;;;;;;12.28;100.00;101730.72;4965521;28;21159;-72
2023/10/12 02:23:12;;;;;;;8.17;2.00;;;;;;;11.67;100.00;101661.03;4965846;28;20453;-73
2023/10/12 02:25:50;;;;;;;5.83;1.30;;;;;;;12.34;100.00;101695.81;4964016;28;20444;-72
2023/10/12 02:28:22;;;;;;;7.43;1.30;;;;;;;12.33;100.00;101678.03;4958423;28;20553;-72
2023/10/12 02:30:55;;;;;;;7.70;1.37;;;;;;;12.10;100.00;101706.94;4965447;28;20588;-72
2023/10/12 02:33:27;;;;;;;8.33;1.70;;;;;;;12.24;100.00;101691.75;4965554;28;20448;-73
2023/10/12 02:35:52;;;;;;;7.83;1.40;;;;;;;12.17;100.00;101708.66;4956032;28;20437;-73
2023/10/12 02:38:20;;;;;;;5.70;1.30;;;;;;;12.05;100.00;101704.78;4962208;28;20463;-73
2023/10/12 02:40:57;;;;;;;7.00;1.80;;;;;;;12.86;100.00;101821.25;4964034;28;20194;-72
2023/10/12 02:43:27;;;;;;;8.20;1.70;;;;;;;11.99;100.00;101709.06;4962279;28;20461;-73
2023/10/12 02:45:53;;;;;;;6.10;1.40;;;;;;;13.14;100.00;101815.13;4963484;28;20441;-73
2023/10/12 02:48:23;;;;;;;9.30;1.70;;;;;;;13.15;100.00;101802.50;4962298;28;20481;-72
2023/10/12 02:50:57;;;;;;;5.40;1.40;;;;;;;13.29;100.00;101828.56;4965774;28;20228;-73
2023/10/12 02:53:34;;;;;;;6.50;1.37;;;;;;;13.27;100.00;101842.22;4961976;28;20456;-72
2023/10/12 02:56:04;;;;;;;6.17;1.33;;;;;;;13.40;100.00;101840.72;4962552;28;20449;-73
2023/10/12 02:58:31;;;;;;;5.87;1.67;;;;;;;13.06;100.00;101777.56;4962782;28;20461;-73
2023/10/12 03:01:13;;;;;;;6.87;1.53;;;;;;;13.18;100.00;101805.63;4964685;28;20809;-73
2023/10/12 03:03:47;;;;;;;6.03;1.30;;;;;;;12.78;100.00;101721.75;4964761;28;20504;-73
2023/10/12 03:06:15;;;;;;;4.70;1.43;;;;;;;13.36;100.00;101828.63;4966718;28;20445;-73
2023/10/12 03:08:59;;;;;;;6.30;1.50;;;;;;;13.19;100.00;101823.50;4963503;28;20501;-73
2023/10/12 03:11:27;;;;;;;6.70;1.37;;;;;;;13.23;100.00;101816.69;4959514;28;20453;-72
2023/10/12 03:16:41;;;;;;;8.80;1.87;;;;;;;13.13;100.00;101770.34;4959611;28;20537;-73
2023/10/12 03:19:25;;;;;;;7.90;1.40;;;;;;;13.46;100.00;101813.81;4962065;28;20532;-73
2023/10/12 03:21:52;;;;;;;7.80;1.70;;;;;;;13.21;100.00;101832.19;4963718;28;20446;-73
2023/10/12 03:24:29;;;;;;;7.40;1.57;;;;;;;13.38;100.00;101810.41;4959503;28;20798;-73
2023/10/12 03:27:11;;;;;;;9.20;1.70;;;;;;;12.66;100.00;101723.28;4962047;28;20473;-73
2023/10/12 03:29:43;;;;;;;7.60;1.47;;;;;;;12.64;100.00;101710.03;4964955;28;20462;-73
2023/10/12 03:32:11;;;;;;;6.87;1.50;;;;;;;12.66;100.00;101715.22;4966023;28;20504;-73
2023/10/12 03:34:53;;;;;;;8.63;1.87;;;;;;;12.60;100.00;101706.03;4964127;28;20537;-72
2023/10/12 03:42:54;;;;;;;7.50;1.60;;;;;;;12.93;100.00;101764.81;4960912;28;20805;-73
2023/10/12 03:45:27;;;;;;;9.67;1.70;;;;;;;12.86;100.00;101772.78;4959216;28;20446;-73
2023/10/12 03:50:53;;;;;;;7.43;1.40;;;;;;;12.77;100.00;101773.94;4961130;28;20446;-73
2023/10/12 03:53:26;;;;;;;6.30;1.30;;;;;;;13.09;100.00;101806.78;4963538;28;20458;-73
2023/10/12 03:55:56;;;;;;;5.63;1.33;;;;;;;12.85;100.00;101787.28;4961193;28;20438;-73
2023/10/12 03:58:24;;;;;;;6.00;1.43;;;;;;;12.58;100.00;101742.25;4958663;28;20458;-73
2023/10/12 04:01:06;;;;;;;8.00;1.33;;;;;;;12.94;100.00;101788.00;4962965;28;20446;-73
2023/10/12 04:03:39;;;;;;;8.83;1.53;;;;;;;12.66;100.00;101756.41;4962490;28;20445;-73
2023/10/12 04:06:15;;;;;;;6.00;1.50;;;;;;;12.69;100.00;101757.91;4961375;28;20445;-73
2023/10/12 04:08:52;;;;;;;10.80;1.93;;;;;;;12.92;100.00;101805.38;4973605;28;20807;-73
2023/10/12 04:13:55;;;;;;;8.47;2.57;;;;;;;12.39;100.00;101738.31;4961864;28;20453;-73
2023/10/12 04:21:22;;;;;;;8.40;2.20;;;;;;;11.95;100.00;101723.91;4958779;28;20635;-75
2023/10/12 04:24:24;;;;;;;8.33;1.97;;;;;;;12.63;100.00;101821.41;4962021;28;20544;-73
2023/10/12 04:28:59;;;;;;;7.00;1.70;;;;;;;12.49;100.00;101797.19;4961897;28;20556;-73
2023/10/12 04:34:10;;;;;;;5.47;1.40;;;;;;;12.76;100.00;101809.97;4958939;28;20186;-73
2023/10/12 04:46:51;;;;;;;5.20;1.43;;;;;;;12.77;100.00;101870.03;4960800;28;21040;-73
2023/10/12 04:51:49;;;;;;;5.67;1.50;;;;;;;12.09;100.00;101746.44;4958144;28;20457;-73
2023/10/12 04:54:23;;;;;;;4.90;1.60;;;;;;;12.73;100.00;101861.50;4961893;28;20191;-75
2023/10/12 04:59:43;;;;;;;5.07;1.50;;;;;;;12.93;100.00;101868.97;4957535;28;20494;-72
2023/10/12 05:07:23;;;;;;;5.03;1.30;;;;;;;12.99;100.00;101893.31;4967430;28;20470;-73
2023/10/12 05:09:49;;;;;;;5.60;1.47;;;;;;;12.15;100.00;101795.91;4960930;28;20480;-75
2023/10/12 05:12:18;;;;;;;10.23;1.93;;;;;;;11.96;100.00;101790.09;4964212;28;20822;-75
2023/10/12 05:14:44;;;;;;;8.60;1.60;;;;;;;11.89;100.00;101773.03;4965328;28;20472;-73
2023/10/12 05:17:09;;;;;;;5.23;1.30;;;;;;;12.16;100.00;101786.84;4964542;28;20438;-73
2023/10/12 05:19:35;;;;;;;5.30;1.37;;;;;;;12.81;100.00;101890.16;4966638;28;20213;-73
2023/10/12 05:22:01;;;;;;;9.97;1.67;;;;;;;12.73;100.00;101872.25;4968684;28;20186;-74
2023/10/12 05:24:27;;;;;;;6.50;2.53;;;;;;;12.46;100.00;101849.53;4967288;28;20442;-74
2023/10/12 05:26:58;;;;;;;5.57;1.47;;;;;;;12.40;100.00;101869.13;4964695;28;20213;-74
2023/10/12 05:39:47;;;;;;;5.57;1.40;;;;;;;12.17;100.00;101853.06;4966379;28;20548;-76
2023/10/12 05:42:16;;;;;;;5.60;1.60;;;;;;;12.12;100.00;101868.91;4969082;28;20426;-74
2023/10/12 05:44:44;;;;;;;8.90;1.50;;;;;;;11.69;100.00;101799.59;4968505;28;20895;-74
2023/10/12 05:47:13;;;;;;;4.23;1.20;;;;;;;11.74;100.00;101817.84;4967557;28;21063;-74
2023/10/12 05:49:40;;;;;;;8.43;1.57;;;;;;;12.31;100.00;101914.09;4968443;28;20457;-74
2023/10/12 05:52:07;;;;;;;7.33;1.53;;;;;;;12.11;100.00;101913.81;4966987;28;20529;-74
2023/10/12 05:54:34;;;;;;;6.77;1.57;;;;;;;11.84;100.00;101831.88;4964156;28;20817;-74
2023/10/12 05:57:05;;;;;;;5.07;1.67;;;;;;;12.05;100.00;101886.81;4968207;28;20441;-74
2023/10/12 05:59:31;;;;;;;9.13;1.70;;;;;;;12.12;100.00;101917.31;4964750;28;20458;-73
2023/10/12 06:01:56;;;;;;;5.03;1.20;;;;;;;12.40;100.00;101928.31;4968690;28;20945;-74
2023/10/12 06:04:22;;;;;;;7.10;1.83;;;;;;;12.41;100.00;101914.69;4967775;28;20190;-74
2023/10/12 06:06:48;;;;;;;5.00;1.20;;;;;;;12.43;100.00;101936.00;4968182;28;20214;-74
2023/10/12 06:09:26;;;;;;;8.67;1.57;;;;;;;11.71;100.00;101813.66;4966292;28;20293;-74
2023/10/12 06:11:53;;;;;;;5.80;1.23;;;;;;;12.44;100.00;101953.84;4969464;28;20219;-74
2023/10/12 06:14:22;;;;;;;4.30;1.30;;;;;;;11.60;100.00;101845.50;4967998;28;20449;-74
2023/10/12 06:16:54;;;;;;;7.13;1.40;;;;;;;12.08;100.00;101906.09;4968434;28;20778;-74
2023/10/12 06:19:26;;;;;;;6.23;1.50;;;;;;;11.75;100.00;101878.66;4967832;28;20810;-74
2023/10/12 06:21:52;;;;;;;4.63;1.37;;;;;;;11.58;100.00;101847.56;4965083;28;20433;-74
2023/10/12 06:24:29;;;;;;;6.87;1.80;;;;;;;12.38;100.00;101943.78;4965870;28;20514;-74
2023/10/12 06:26:55;;;;;;;5.93;1.70;;;;;;;11.46;100.00;101834.53;4964737;28;20486;-74
2023/10/12 06:29:26;;;;;;;6.33;1.40;;;;;;;11.56;100.00;101826.22;4964751;28;20454;-74
2023/10/12 06:31:54;;;;;;;4.87;1.20;;;;;;;11.95;100.00;101909.41;4967641;28;20281;-74
2023/10/12 06:34:20;;;;;;;8.00;1.87;;;;;;;12.16;100.00;101945.53;4967050;28;20426;-74
2023/10/12 06:36:45;;;;;;;5.10;1.37;;;;;;;11.50;100.00;101859.19;4967142;28;20434;-74
2023/10/12 06:44:25;;;;;;;6.07;1.53;;;;;;;11.44;100.00;101823.13;4966509;28;20430;-74
2023/10/12 06:46:57;;;;;;;6.67;1.50;;;;;;;11.68;100.00;101893.81;4962248;28;20516;-74
2023/10/12 06:49:24;;;;;;;7.00;1.53;;;;;;;11.69;100.00;101920.53;4961195;28;20457;-74
2023/10/12 06:52:24;;;;;;;5.33;1.33;;;;;;;11.84;100.00;101938.56;4969902;28;20457;-74
2023/10/12 06:54:49;;;;;;;5.67;1.33;;;;;;;11.95;100.00;101928.25;4964938;28;20438;-74
2023/10/12 06:59:52;;;;;;;3.57;1.00;;;;;;;12.04;100.00;101952.38;4968576;28;20468;-74
2023/10/12 07:02:23;;;;;;;7.37;1.50;;;;;;;11.54;100.00;101865.88;4972529;28;20487;-74
2023/10/12 07:04:58;;;;;;;7.23;1.50;;;;;;;11.24;100.00;101803.97;4967275;28;20524;-74
2023/10/12 07:07:29;;;;;;;8.50;1.50;;;;;;;12.52;100.00;101963.66;4968207;28;20506;-74
2023/10/12 07:12:48;;;;;;;7.63;2.10;;;;;;;12.44;100.00;101946.59;4965715;28;20418;-74
2023/10/12 07:15:23;;;;;;;4.83;1.60;;;;;;;12.57;100.00;101972.88;4964862;28;20538;-74
2023/10/12 07:17:53;;;;;;;8.60;1.90;;;;;;;12.15;100.00;101879.28;4964031;28;20808;-74
2023/10/12 07:23:14;;;;;;;6.30;1.30;;;;;;;12.96;100.00;101957.44;4967117;28;20425;-74
2023/10/12 07:25:43;;;;;;;5.27;1.40;;;;;;;12.35;100.00;101855.38;4966442;28;20926;-74
2023/10/12 07:28:19;;;;;;;7.67;1.30;;;;;;;13.09;100.00;101938.78;4967502;28;20472;-74
2023/10/12 07:33:32;;;;;;;6.50;1.57;;;;;;;13.01;100.00;101934.31;4966122;28;20946;-74
2023/10/12 07:36:09;;;;;;;6.60;1.83;;;;;;;12.65;100.00;101848.13;4966332;28;20446;-74
2023/10/12 07:38:35;;;;;;;8.13;1.93;;;;;;;12.95;100.00;101848.91;4965221;28;21025;-74
2023/10/12 07:41:01;;;;;;;7.60;1.50;;;;;;;13.40;100.00;101941.25;4962158;28;20442;-74
2023/10/12 07:43:31;;;;;;;5.60;1.40;;;;;;;12.86;100.00;101848.19;4964881;28;20186;-74
2023/10/12 07:46:24;;;;;;;6.00;1.40;;;;;;;12.91;100.00;101836.03;4966269;28;20186;-74
2023/10/12 07:48:51;;;;;;;5.20;1.50;;;;;;;13.43;100.00;101922.00;4965388;28;20473;-74
2023/10/12 07:51:26;;;;;;;6.40;1.57;;;;;;;13.08;100.00;101840.16;4964820;28;20915;-74
2023/10/12 07:54:25;;;;;;;6.97;1.50;;;;;;;13.08;100.00;101829.38;4966824;28;20587;-74
2023/10/12 07:56:52;;;;;;;5.80;1.60;;;;;;;13.55;100.00;101866.56;4962690;28;20481;-74
2023/10/12 07:59:22;;;;;;;6.60;1.60;;;;;;;13.15;100.00;101799.81;4963768;28;20546;-75
2023/10/12 08:01:50;;;;;;;8.30;1.80;;;;;;;14.04;100.00;101896.41;4966850;28;20981;-74
2023/10/12 08:04:31;;;;;;;8.10;1.40;;;;;;;13.62;100.00;101860.38;4965350;28;20523;-75
2023/10/12 08:06:57;;;;;;;5.10;1.80;;;;;;;14.07;100.00;101887.94;4968117;28;20504;-75
2023/10/12 08:11:51;;;;;;;5.80;1.53;;;;;;;13.88;100.00;101827.41;4968320;28;20511;-75
2023/10/12 08:14:39;;;;;;;5.37;1.50;;;;;;;14.16;100.00;101840.88;4965389;28;20430;-75
2023/10/12 08:19:55;;;;;;;10.77;3.10;;;;;;;14.37;100.00;101851.59;4967612;28;20445;-75
2023/10/12 08:22:29;;;;;;;9.37;1.63;;;;;;;13.91;100.00;101816.22;4961714;28;20431;-75
2023/10/12 08:25:04;;;;;;;9.93;1.97;;;;;;;13.75;100.00;101771.53;4964865;28;20455;-75
2023/10/12 08:27:43;;;;;;;8.10;1.63;;;;;;;13.77;100.00;101802.66;4965991;28;20584;-75
2023/10/12 08:30:23;;;;;;;6.10;1.40;;;;;;;13.95;100.00;101798.63;4965138;28;20792;-75
2023/10/12 08:32:59;;;;;;;6.83;1.23;;;;;;;14.18;100.00;101799.19;4964992;28;20911;-75
2023/10/12 08:36:22;;;;;;;6.90;1.63;;;;;;;14.47;100.00;101802.66;4967162;28;20434;-75
2023/10/12 08:38:40;;;;;;;8.80;1.77;;;;;;;13.65;100.00;101723.31;4967617;28;20513;-75
2023/10/12 08:41:21;;;;;;;5.50;2.03;;;;;;;14.29;100.00;101762.72;4966203;28;20453;-75
2023/10/12 08:43:52;;;;;;;7.17;1.80;;;;;;;13.79;100.00;101721.56;4964814;28;21175;-75
2023/10/12 08:52:04;;;;;;;6.27;1.50;;;;;;;13.85;100.00;101701.06;4966936;28;20449;-76
2023/10/12 08:54:37;;;;;;;8.07;1.73;;;;;;;14.39;100.00;101790.16;4967006;28;20761;-75
2023/10/12 08:57:35;;;;;;;5.50;1.50;;;;;;;14.02;100.00;101680.81;4966537;28;20484;-75
2023/10/12 09:00:29;;;;;;;7.60;1.60;;;;;;;14.43;100.00;101755.47;4967091;28;21045;-75
2023/10/12 09:03:00;;;;;;;5.53;1.37;;;;;;;14.67;100.00;101741.47;4970484;28;20911;-75
2023/10/12 09:05:31;;;;;;;5.90;1.10;;;;;;;14.85;100.00;101731.97;4966372;28;20441;-75
2023/10/12 09:08:39;;;;;;;9.93;1.70;;;;;;;14.64;100.00;101711.38;4969566;28;20476;-75
2023/10/12 09:13:28;;;;;;;5.00;1.37;;;;;;;14.07;100.00;101577.72;4968876;28;20429;-75
2023/10/12 09:15:59;;;;;;;6.43;1.30;;;;;;;14.59;100.00;101640.94;4968702;28;20433;-75
2023/10/12 09:18:30;;;;;;;5.00;1.67;;;;;;;14.80;100.00;101650.72;4969422;28;20532;-75
2023/10/12 09:31:13;;;;;;;7.77;2.17;;;;;;;14.79;100.00;101546.44;4971399;28;20862;-75
2023/10/12 09:36:24;;;;;;;6.30;1.47;;;;;;;14.35;100.00;101412.91;4968570;28;20500;-75
2023/10/12 09:38:55;;;;;;;5.10;1.33;;;;;;;14.77;100.00;101472.91;4967469;28;20962;-76
2023/10/12 09:41:27;;;;;;;6.40;1.63;;;;;;;14.27;100.00;101461.72;4979631;28;20209;-76
2023/10/12 09:43:56;;;;;;;7.70;1.10;;;;;;;14.17;100.00;101462.13;4970487;28;20488;-75
2023/10/12 09:46:27;;;;;;;5.90;1.30;;;;;;;14.59;100.00;101468.97;4968555;28;20438;-75
2023/10/12 09:49:02;;;;;;;8.00;1.27;;;;;;;14.19;100.00;101406.91;4963771;28;20465;-75
2023/10/12 09:51:35;;;;;;;5.33;1.23;;;;;;;14.39;100.00;101403.38;4966387;28;21004;-75
2023/10/12 09:54:09;;;;;;;6.77;1.67;;;;;;;14.37;100.00;101403.56;4962877;28;20966;-75
2023/10/12 09:57:26;;;;;;;4.87;1.33;;;;;;;14.99;100.00;101481.59;4964717;28;20437;-76
2023/10/12 09:59:29;;;;;;;6.50;1.53;;;;;;;14.17;100.00;101468.34;4963725;28;20984;-76
2023/10/12 10:02:59;;;;;;;7.83;1.67;;;;;;;14.16;100.00;101423.53;4962956;28;20917;-75
2023/10/12 10:07:38;;;;;;;6.40;1.30;;;;;;;14.94;100.00;101494.88;4964873;28;20465;-75
2023/10/12 10:10:08;;;;;;;4.20;1.20;;;;;;;14.58;100.00;101545.63;4962213;28;20470;-76
2023/10/12 10:12:35;;;;;;;5.73;1.07;;;;;;;14.31;100.00;101484.53;4965790;28;20438;-75
2023/10/12 10:15:10;;;;;;;7.20;1.70;;;;;;;14.93;100.00;101494.06;4966247;28;20438;-75
2023/10/12 10:17:46;;;;;;;8.43;1.47;;;;;;;15.13;100.00;101502.13;4964798;28;20445;-75
2023/10/12 10:22:59;;;;;;;4.90;1.13;;;;;;;15.54;100.00;101449.53;4964849;28;20445;-75
2023/10/12 10:25:34;;;;;;;8.10;1.50;;;;;;;15.21;100.00;101318.09;4967600;28;20797;-75
2023/10/12 10:28:06;;;;;;;5.47;1.40;;;;;;;15.89;100.00;101340.94;4966268;28;21013;-75
2023/10/12 10:30:40;;;;;;;9.83;1.70;;;;;;;15.93;100.00;101342.94;4966285;28;20461;-76
2023/10/12 10:33:17;;;;;;;6.63;1.30;;;;;;;15.66;100.00;101336.09;4963035;28;21267;-75
2023/10/12 10:35:58;;;;;;;4.50;1.30;;;;;;;15.65;100.00;101329.00;4963429;28;20821;-75
2023/10/12 10:38:30;;;;;;;6.23;1.57;;;;;;;15.30;100.00;101218.66;4965180;28;20458;-75
2023/10/12 10:41:05;;;;;;;5.80;1.50;;;;;;;16.07;100.00;101310.38;4968819;28;20433;-77
2023/10/12 10:43:34;;;;;;;9.93;1.37;;;;;;;15.97;100.00;101290.06;4963658;28;20468;-75
2023/10/12 10:46:03;;;;;;;8.33;2.23;;;;;;;15.42;100.00;101194.44;4962129;28;20855;-75
2023/10/12 10:48:29;;;;;;;6.67;1.40;;;;;;;15.69;100.00;101151.81;4963972;28;21034;-75
2023/10/12 10:50:55;;;;;;;8.37;2.07;;;;;;;16.13;100.00;101245.34;4965458;28;20533;-75
2023/10/12 10:53:20;;;;;;;9.47;1.60;;;;;;;15.23;100.00;101289.00;4968089;28;20273;-75
2023/10/12 10:55:50;;;;;;;5.37;1.50;;;;;;;16.03;100.00;101407.41;4965554;28;20627;-75
2023/10/12 10:58:18;;;;;;;8.03;1.50;;;;;;;15.10;100.00;101254.81;4964330;28;20201;-75
2023/10/12 11:00:56;;;;;;;7.07;1.53;;;;;;;15.42;100.00;101349.38;4966207;28;20512;-75
2023/10/12 11:03:22;;;;;;;6.67;2.20;;;;;;;15.74;100.00;101346.69;4978355;23;20501;-74
2023/10/12 11:05:48;;;;;;;7.97;1.90;;;;;;;15.59;100.00;101266.69;4963274;28;20453;-74
2023/10/12 11:08:26;;;;;;;8.03;1.50;;;;;;;15.29;100.00;101254.88;4964275;28;20977;-73
2023/10/12 11:13:38;;;;;;;5.90;1.20;;;;;;;16.10;100.00;101209.78;4963443;28;20433;-73
2023/10/12 11:18:54;;;;;;;5.67;1.50;;;;;;;17.01;100.00;101151.88;4962017;28;21088;-73
2023/10/12 11:21:23;;;;;;;6.70;1.23;;;;;;;16.99;100.00;101174.84;4963285;28;20441;-74
2023/10/12 11:23:50;;;;;;;6.83;1.30;;;;;;;16.77;100.00;101180.81;4965678;28;20480;-73
2023/10/12 11:26:19;;;;;;;6.57;1.23;;;;;;;16.47;100.00;101218.72;4961290;28;20481;-73
2023/10/12 11:28:46;;;;;;;4.97;1.37;;;;;;;17.70;100.00;101076.13;4965319;28;20778;-73
2023/10/12 11:31:20;;;;;;;8.53;1.83;;;;;;;18.52;100.00;101539.50;4963651;28;20438;-73
2023/10/12 11:33:53;;;;;;;7.23;2.10;;;;;;;18.11;100.00;101353.88;4957918;28;20477;-73
2023/10/12 11:36:26;;;;;;;7.60;2.30;;;;;;;18.22;100.00;101372.00;4958838;28;20489;-73
2023/10/12 11:39:03;;;;;;;11.90;1.70;;;;;;;18.95;100.00;101242.06;4959055;28;20457;-74
2023/10/12 11:41:30;;;;;;;7.40;1.40;;;;;;;18.21;100.00;101301.69;4956468;28;20433;-73
2023/10/12 11:44:00;;;;;;;8.57;2.07;;;;;;;18.22;100.00;101303.31;4963159;28;20810;-73
2023/10/12 11:46:26;;;;;;;6.53;1.60;;;;;;;19.20;100.00;101263.41;4959117;28;20493;-73
2023/10/12 11:49:07;;;;;;;7.77;1.30;;;;;;;19.37;100.00;101218.00;4961273;28;20341;-73
2023/10/12 11:51:40;;;;;;;9.00;1.45;;;;;;;20.03;100.00;101297.13;4959989;28;20912;-76
2023/10/12 11:54:07;;;;;;;;;;;;;;;20.51;100.00;101321.97;4957109;28;20327;-76
2023/10/12 11:56:37;;;;;;;6.40;1.60;;;;;;;20.30;100.00;101283.59;4963931;28;20390;-75
2023/10/12 11:59:06;;;;;;;6.70;1.63;;;;;;;20.52;100.00;101315.47;4956994;28;20460;-76
2023/10/12 12:01:33;;;;;;;6.27;1.60;;;;;;;19.76;100.00;101222.69;4964384;28;20325;-77
2023/10/12 12:04:02;;;;;;;6.47;1.73;;;;;;;20.23;100.00;101266.63;4967238;28;20441;-75
2023/10/12 12:06:32;;;;;;;5.63;1.50;;;;;;;18.30;100.00;101219.59;4959339;28;20437;-76
2023/10/12 12:08:59;;;;;;;6.87;1.77;;;;;;;17.20;100.00;101168.84;4962444;28;20466;-76
2023/10/12 12:11:31;;;;;;;5.73;1.40;;;;;;;18.50;100.00;101332.44;4962038;28;20797;-76
2023/10/12 12:13:57;;;;;;;8.07;1.50;;;;;;;20.72;100.00;101331.28;4963820;28;20421;-76
2023/10/12 12:16:22;;;;;;;6.63;1.70;;;;;;;19.56;100.00;101402.78;4962978;28;20485;-76
2023/10/12 12:18:52;;;;;;;5.00;1.33;;;;;;;19.58;100.00;101310.81;4964453;28;20461;-75
2023/10/12 12:21:29;;;;;;;5.20;1.47;;;;;;;19.85;100.00;101389.97;4965030;28;20248;-75
2023/10/12 12:26:44;;;;;;;5.83;1.23;;;;;;;19.38;100.00;101324.91;4964432;28;20985;-76
2023/10/12 12:29:11;;;;;;;7.53;1.60;;;;;;;19.75;100.00;101349.78;4968832;28;20449;-76
2023/10/12 12:31:37;;;;;;;7.20;1.30;;;;;;;21.31;100.00;101297.78;4969112;28;20469;-76
2023/10/12 12:34:06;;;;;;;6.20;1.37;;;;;;;21.37;100.00;101351.34;4965835;28;20464;-76
2023/10/12 12:36:32;;;;;;;6.60;1.60;;;;;;;19.91;100.00;101269.19;4965010;28;20426;-75
2023/10/12 12:39:00;;;;;;;7.00;1.57;;;;;;;19.86;100.00;101312.66;4967226;28;20457;-76
2023/10/12 12:41:30;;;;;;;5.60;1.60;;;;;;;19.80;100.00;101349.88;4965661;28;20253;-76
2023/10/12 12:43:59;;;;;;;7.60;1.40;;;;;;;19.36;100.00;101330.59;4966994;28;21029;-74
2023/10/12 12:46:24;;;;;;;7.63;1.50;;;;;;;19.47;100.00;101375.13;4966577;28;20437;-74
2023/10/12 12:48:50;;;;;;;6.10;1.30;;;;;;;19.57;100.00;101322.78;4967619;28;20473;-74
2023/10/12 12:51:17;;;;;;;9.03;1.60;;;;;;;18.64;100.00;101331.09;4967278;28;20497;-75
2023/10/12 12:53:46;;;;;;;10.20;1.40;;;;;;;18.44;100.00;101320.63;4968636;28;20437;-74
2023/10/12 12:56:16;;;;;;;7.63;1.60;;;;;;;19.62;100.00;101280.16;4965785;28;20440;-74
2023/10/12 12:58:48;;;;;;;4.33;1.20;;;;;;;18.43;100.00;101255.72;4965033;28;20448;-73
2023/10/12 13:01:24;;;;;;;7.60;1.93;;;;;;;17.46;100.00;101295.03;4969161;28;20458;-73
2023/10/12 13:03:52;;;;;;;5.83;1.70;;;;;;;16.72;100.00;101260.03;4964848;28;20441;-74
2023/10/12 13:06:19;;;;;;;9.57;1.50;;;;;;;18.01;100.00;101310.19;4965534;28;20430;-74
2023/10/12 13:08:44;;;;;;;5.53;1.27;;;;;;;18.48;100.00;101296.53;4962543;28;20487;-75
2023/10/12 13:11:11;;;;;;;7.03;1.57;;;;;;;17.35;100.00;101204.47;4964800;28;20485;-74
2023/10/12 13:13:39;;;;;;;4.70;1.30;;;;;;;18.06;100.00;101264.16;4966539;28;20181;-73
2023/10/12 13:16:05;;;;;;;5.77;1.47;;;;;;;18.29;100.00;101302.13;4965246;28;20525;-75
2023/10/12 13:18:32;;;;;;;5.47;1.33;;;;;;;17.93;100.00;101270.66;4967446;28;20538;-74
2023/10/12 13:20:59;;;;;;;7.70;1.33;;;;;;;17.46;100.00;101437.94;4967420;28;20194;-74
2023/10/12 13:23:24;;;;;;;4.73;1.20;;;;;;;16.87;100.00;101557.69;4962354;28;20774;-74
2023/10/12 13:25:50;;;;;;;4.87;1.40;;;;;;;16.85;100.00;101521.03;4964420;28;20453;-74
2023/10/12 13:28:16;;;;;;;5.30;1.17;;;;;;;17.68;100.00;101590.19;4964941;28;20873;-74
2023/10/12 13:30:43;;;;;;;5.80;1.30;;;;;;;17.93;100.00;101520.34;4968188;28;20233;-74
2023/10/12 13:33:11;;;;;;;5.80;1.30;;;;;;;18.12;100.00;101428.81;4964775;28;20916;-74
2023/10/12 13:35:44;;;;;;;4.60;1.40;;;;;;;19.95;100.00;101401.00;4967928;28;20430;-74
2023/10/12 13:38:11;;;;;;;7.10;1.30;;;;;;;19.28;100.00;101186.84;4964881;28;20468;-74